createdAt,value
2018-07-15T18:32:10.071Z,28.74
2018-07-15T18:39:53.862Z,28.37
2018-07-15T18:45:50.686Z,28.10
2018-07-15T18:48:24.540Z,28.04
2018-07-15T18:51:30.295Z,28.00
2018-07-15T18:54:02.641Z,27.84
2018-07-15T18:56:37.619Z,27.73
2018-07-15T18:59:12.936Z,27.61
2018-07-15T19:01:50.912Z,27.55
2018-07-15T19:04:25.346Z,27.47
2018-07-15T19:06:58.492Z,27.38
2018-07-15T19:09:32.156Z,27.31
2018-07-15T19:12:05.011Z,27.22
2018-07-15T19:14:41.627Z,27.15
2018-07-15T19:17:17.412Z,27.08
2018-07-15T19:20:00.609Z,27.06
2018-07-15T19:22:33.940Z,26.95
2018-07-15T19:25:10.575Z,26.90
2018-07-15T19:27:44.883Z,26.83
2018-07-15T19:30:17.953Z,26.87
2018-07-15T19:32:52.637Z,26.77
2018-07-15T19:35:34.687Z,26.66
2018-07-15T19:38:10.743Z,26.54
2018-07-15T19:40:44.623Z,26.42
2018-07-15T19:43:21.652Z,26.32
2018-07-15T19:46:00.792Z,26.23
2018-07-15T19:48:35.693Z,26.08
2018-07-15T19:51:11.117Z,25.98
2018-07-15T19:53:47.324Z,25.93
2018-07-15T19:56:21.108Z,25.89
2018-07-15T19:58:53.639Z,25.86
2018-07-15T20:01:30.034Z,25.79
2018-07-15T20:04:02.381Z,25.71
2018-07-15T20:06:40.737Z,25.65
2018-07-15T20:09:14.273Z,25.54
2018-07-15T20:12:03.324Z,25.48
2018-07-15T20:14:37.815Z,25.37
2018-07-15T20:17:16.544Z,25.27
2018-07-15T20:19:49.810Z,25.10
2018-07-15T20:22:25.848Z,24.99
2018-07-15T20:25:03.487Z,24.91
2018-07-15T20:27:37.683Z,24.83
2018-07-15T20:30:17.243Z,24.76
2018-07-15T20:32:55.508Z,24.70
2018-07-15T20:35:32.702Z,24.59
2018-07-15T20:38:12.196Z,24.54
2018-07-15T20:40:47.037Z,24.45
2018-07-15T20:43:20.019Z,24.38
2018-07-15T20:45:54.812Z,24.34
2018-07-15T20:48:29.272Z,24.27
2018-07-15T20:51:05.274Z,24.26
2018-07-15T20:53:40.225Z,24.28
2018-07-15T20:56:14.466Z,24.27
2018-07-15T20:58:50.600Z,24.24
